createdAt,value
2018-06-04T00:00:41.565Z,15.72
2018-06-04T00:03:10.417Z,15.69
2018-06-04T00:05:39.251Z,15.66
2018-06-04T00:08:08.431Z,15.67
2018-06-04T00:10:37.337Z,15.65
2018-06-04T00:13:06.275Z,15.52
2018-06-04T00:15:35.131Z,15.53
2018-06-04T00:18:03.998Z,15.43
2018-06-04T00:20:32.931Z,15.32
2018-06-04T00:23:01.740Z,15.37
2018-06-04T00:25:30.596Z,15.38
2018-06-04T00:27:59.465Z,15.33
2018-06-04T00:30:28.333Z,15.44
2018-06-04T00:32:57.230Z,15.45
2018-06-04T00:35:26.105Z,15.46
2018-06-04T00:37:54.959Z,15.44
2018-06-04T00:40:23.800Z,15.36
2018-06-04T00:42:52.663Z,15.40
2018-06-04T00:45:21.526Z,15.40
2018-06-04T00:47:50.434Z,15.41
2018-06-04T00:50:19.292Z,15.35
2018-06-04T00:52:48.153Z,15.35
2018-06-04T00:55:16.958Z,15.32
2018-06-04T00:57:45.822Z,15.34
2018-06-04T01:00:14.705Z,15.36
2018-06-04T01:02:43.602Z,15.24
2018-06-04T01:05:12.462Z,15.27
2018-06-04T01:07:41.431Z,15.21
2018-06-04T01:10:10.382Z,15.19
2018-06-04T01:12:39.275Z,15.23
2018-06-04T01:15:08.149Z,15.09
2018-06-04T01:17:37.035Z,15.15
2018-06-04T01:20:05.956Z,15.18
2018-06-04T01:22:34.815Z,15.21
2018-06-04T01:25:03.672Z,15.24
2018-06-04T01:27:32.511Z,15.21
2018-06-04T01:30:01.392Z,15.21
2018-06-04T01:32:30.248Z,15.33
2018-06-04T01:34:59.074Z,15.45
2018-06-04T01:37:27.920Z,15.50
2018-06-04T01:39:56.785Z,15.50
2018-06-04T01:42:25.630Z,15.50
2018-06-04T01:44:54.501Z,15.51
2018-06-04T01:47:23.333Z,15.56
2018-06-04T01:49:52.217Z,15.62
2018-06-04T01:52:21.113Z,15.69
2018-06-04T01:54:49.932Z,15.78
2018-06-04T01:57:18.766Z,15.83
2018-06-04T01:59:47.619Z,15.83
2018-06-04T02:02:16.446Z,15.82
2018-06-04T02:04:45.369Z,15.94
2018-06-04T02:07:14.235Z,15.97
2018-06-04T02:09:43.131Z,16.11
2018-06-04T02:12:12.000Z,15.97
2018-06-04T02:14:40.890Z,16.00
2018-06-04T02:17:09.805Z,15.99
2018-06-04T02:19:38.658Z,16.00
2018-06-04T02:22:07.528Z,16.00
2018-06-04T02:24:36.415Z,16.04
2018-06-04T02:27:05.259Z,16.01
2018-06-04T02:29:34.138Z,16.01
2018-06-04T02:32:03.034Z,16.03
2018-06-04T02:34:31.882Z,16.03
2018-06-04T02:37:00.723Z,16.02
2018-06-04T02:39:29.590Z,16.05
2018-06-04T02:41:58.414Z,16.06
2018-06-04T02:44:27.253Z,16.08
2018-06-04T02:46:56.136Z,16.12
2018-06-04T02:49:25.023Z,16.10
2018-06-04T02:51:53.956Z,16.10
2018-06-04T02:54:22.867Z,16.16
2018-06-04T02:56:51.734Z,16.18
2018-06-04T02:59:20.558Z,16.23
2018-06-04T03:01:49.472Z,16.17
2018-06-04T03:04:18.340Z,16.16
2018-06-04T03:06:47.190Z,16.17
2018-06-04T03:09:16.076Z,16.16
2018-06-04T03:11:44.918Z,16.21
2018-06-04T03:14:13.779Z,16.21
2018-06-04T03:16:42.806Z,16.23
2018-06-04T03:19:11.663Z,16.29
2018-06-04T03:21:40.526Z,16.29
2018-06-04T03:24:09.458Z,16.22
2018-06-04T03:26:38.370Z,16.22
2018-06-04T03:29:07.197Z,16.25
2018-06-04T03:31:36.223Z,16.27
2018-06-04T03:34:05.098Z,16.28
2018-06-04T03:36:34.014Z,16.33
2018-06-04T03:39:03.009Z,16.31
2018-06-04T03:41:31.899Z,16.37
2018-06-04T03:44:00.765Z,16.31
2018-06-04T03:46:29.655Z,16.36
2018-06-04T03:48:58.909Z,16.34
2018-06-04T03:51:27.750Z,16.45
2018-06-04T03:53:56.633Z,16.47
2018-06-04T03:56:25.500Z,16.58
2018-06-04T03:58:54.450Z,16.55
2018-06-04T04:01:23.324Z,16.55
2018-06-04T04:03:52.205Z,16.53
2018-06-04T04:06:21.049Z,16.55
2018-06-04T04:08:49.999Z,16.55
2018-06-04T04:11:19.022Z,16.53
2018-06-04T04:13:47.925Z,16.51
2018-06-04T04:16:16.774Z,16.55
2018-06-04T04:18:45.704Z,16.52
2018-06-04T04:21:14.580Z,16.52
2018-06-04T04:23:43.505Z,16.59
2018-06-04T04:26:12.395Z,16.54
2018-06-04T04:28:46.504Z,16.55
2018-06-04T04:31:15.429Z,16.66
2018-06-04T04:33:44.326Z,16.65
2018-06-04T04:36:13.215Z,16.61
2018-06-04T04:38:42.111Z,16.54
2018-06-04T04:41:10.994Z,16.63
2018-06-04T04:43:39.854Z,16.60
2018-06-04T04:46:08.759Z,16.65
2018-06-04T04:48:37.636Z,16.76
2018-06-04T04:51:06.626Z,16.75
2018-06-04T04:53:35.573Z,16.72
2018-06-04T04:56:04.459Z,16.72
2018-06-04T04:58:33.335Z,16.73
2018-06-04T05:01:02.241Z,16.81
2018-06-04T05:03:31.134Z,16.84
2018-06-04T05:06:00.029Z,16.87
2018-06-04T05:08:28.984Z,16.78
2018-06-04T05:10:57.891Z,16.79
2018-06-04T05:13:27.968Z,16.80
2018-06-04T05:15:56.832Z,16.79
2018-06-04T05:18:27.259Z,16.76
2018-06-04T05:20:56.700Z,16.88
2018-06-04T05:23:26.387Z,16.79
2018-06-04T05:25:55.282Z,16.83
2018-06-04T05:28:24.217Z,16.85
2018-06-04T05:30:53.468Z,16.80
2018-06-04T05:33:22.934Z,16.76
2018-06-04T05:35:51.802Z,16.89
2018-06-04T05:38:20.780Z,16.86
2018-06-04T05:40:49.662Z,16.86
2018-06-04T05:43:18.520Z,16.88
2018-06-04T05:45:47.344Z,16.91
2018-06-04T05:48:16.202Z,17.02
2018-06-04T05:50:45.117Z,16.96
2018-06-04T05:53:14.018Z,16.94
2018-06-04T05:55:42.930Z,16.95
2018-06-04T05:58:12.869Z,16.96
2018-06-04T06:00:41.789Z,16.96
2018-06-04T06:03:10.811Z,16.92
2018-06-04T06:05:39.694Z,17.01
2018-06-04T06:08:08.567Z,16.93
2018-06-04T06:10:37.561Z,16.99
2018-06-04T06:13:06.473Z,17.00
2018-06-04T06:15:35.365Z,17.06
2018-06-04T06:18:04.300Z,17.05
2018-06-04T06:20:33.214Z,17.05
2018-06-04T06:23:02.124Z,16.99
2018-06-04T06:25:31.024Z,16.96
2018-06-04T06:28:03.627Z,17.03
2018-06-04T06:30:32.590Z,17.05
2018-06-04T06:33:01.559Z,17.14
2018-06-04T06:35:30.866Z,17.14
2018-06-04T06:37:59.774Z,17.05
2018-06-04T06:40:30.184Z,17.12
2018-06-04T06:42:59.137Z,17.06
2018-06-04T06:45:28.026Z,17.19
2018-06-04T06:47:56.927Z,17.12
2018-06-04T06:50:26.885Z,17.18
2018-06-04T06:52:55.789Z,17.24
2018-06-04T06:55:24.749Z,17.20
2018-06-04T06:57:53.714Z,17.20
2018-06-04T07:00:22.623Z,17.18
2018-06-04T07:02:51.604Z,17.20
2018-06-04T07:05:20.560Z,17.22
2018-06-04T07:07:49.412Z,17.17
2018-06-04T07:10:18.330Z,17.32
2018-06-04T07:12:47.200Z,17.48
2018-06-04T07:15:16.104Z,17.52
2018-06-04T07:17:44.949Z,17.47
2018-06-04T07:20:13.815Z,17.40
2018-06-04T07:22:42.673Z,17.41
2018-06-04T07:25:11.632Z,17.38
2018-06-04T07:27:40.594Z,17.39
2018-06-04T07:30:09.449Z,17.35
2018-06-04T07:32:38.339Z,17.26
2018-06-04T07:35:07.311Z,17.22
2018-06-04T07:37:36.171Z,17.28
2018-06-04T07:40:05.676Z,17.15
2018-06-04T07:42:34.548Z,17.25
2018-06-04T07:45:03.494Z,17.05
2018-06-04T07:47:33.302Z,17.15
2018-06-04T07:50:02.736Z,17.21
2018-06-04T07:52:31.556Z,17.30
2018-06-04T07:55:00.423Z,17.21
2018-06-04T07:57:29.264Z,17.22
2018-06-04T07:59:58.189Z,17.38
2018-06-04T08:02:27.097Z,17.64
2018-06-04T08:04:55.987Z,17.74
2018-06-04T08:07:24.925Z,17.90
2018-06-04T08:09:53.819Z,18.07
2018-06-04T08:12:22.653Z,18.01
2018-06-04T08:14:51.587Z,18.05
2018-06-04T08:17:20.456Z,17.98
2018-06-04T08:19:49.397Z,17.84
2018-06-04T08:22:18.913Z,17.82
2018-06-04T08:24:47.830Z,17.69
2018-06-04T08:27:16.678Z,17.72
2018-06-04T08:29:45.538Z,17.68
2018-06-04T08:32:14.412Z,17.57
2018-06-04T08:34:43.253Z,17.51
2018-06-04T08:37:12.137Z,17.23
2018-06-04T08:39:40.999Z,17.28
2018-06-04T08:42:09.857Z,17.19
2018-06-04T08:44:38.750Z,17.15
2018-06-04T08:47:07.652Z,17.20
2018-06-04T08:49:36.540Z,17.19
2018-06-04T08:52:05.465Z,17.20
2018-06-04T08:54:34.340Z,17.26
2018-06-04T08:57:03.232Z,17.24
2018-06-04T08:59:32.108Z,17.23
2018-06-04T09:02:01.003Z,17.24
2018-06-04T09:04:29.860Z,17.27
2018-06-04T09:06:58.677Z,17.47
2018-06-04T09:09:27.534Z,17.49
2018-06-04T09:11:56.398Z,17.51
2018-06-04T09:14:25.396Z,17.67
2018-06-04T09:16:54.286Z,17.63
2018-06-04T09:19:23.129Z,17.64
2018-06-04T09:21:51.970Z,17.59
2018-06-04T09:24:20.832Z,17.55
2018-06-04T09:26:49.692Z,17.54
2018-06-04T09:29:18.568Z,17.53
2018-06-04T09:31:47.402Z,17.47
2018-06-04T09:34:16.290Z,17.47
2018-06-04T09:36:45.133Z,17.45
2018-06-04T09:39:14.014Z,17.69
2018-06-04T09:41:42.880Z,17.72
2018-06-04T09:44:11.778Z,17.88
2018-06-04T09:46:40.650Z,17.88
2018-06-04T09:49:09.545Z,17.98
2018-06-04T09:51:38.430Z,18.13
2018-06-04T09:54:07.324Z,18.21
2018-06-04T09:56:36.168Z,18.15
2018-06-04T09:59:11.101Z,18.18
2018-06-04T10:01:39.923Z,18.15
2018-06-04T10:04:08.768Z,18.14
2018-06-04T10:06:37.597Z,18.19
2018-06-04T10:09:08.483Z,18.01
2018-06-04T10:11:37.336Z,17.73
2018-06-04T10:14:06.446Z,17.90
2018-06-04T10:16:35.401Z,18.00
2018-06-04T10:19:04.254Z,18.00
2018-06-04T10:21:33.221Z,18.09
2018-06-04T10:24:02.106Z,18.04
2018-06-04T10:26:30.968Z,18.02
2018-06-04T10:28:59.883Z,18.07
2018-06-04T10:31:28.707Z,18.15
2018-06-04T10:33:57.572Z,18.05
2018-06-04T10:36:26.442Z,18.08
2018-06-04T10:38:55.315Z,18.09
2018-06-04T10:41:24.196Z,18.15
2018-06-04T10:43:53.126Z,18.14
2018-06-04T10:46:21.963Z,18.17
2018-06-04T10:48:50.861Z,18.13
2018-06-04T10:51:19.704Z,18.09
2018-06-04T10:53:48.540Z,18.10
2018-06-04T10:56:17.421Z,18.02
2018-06-04T10:58:46.268Z,18.09
2018-06-04T11:01:15.123Z,18.09
2018-06-04T11:03:43.957Z,17.93
2018-06-04T11:06:12.821Z,17.98
2018-06-04T11:08:41.770Z,18.06
2018-06-04T11:11:10.665Z,17.86
2018-06-04T11:13:39.570Z,18.05
2018-06-04T11:16:08.415Z,18.09
2018-06-04T11:18:40.134Z,17.97
2018-06-04T11:21:09.021Z,17.97
2018-06-04T11:23:37.873Z,17.84
2018-06-04T11:26:06.756Z,17.86
2018-06-04T11:28:35.607Z,17.90
2018-06-04T11:31:04.441Z,17.82
2018-06-04T11:33:33.376Z,17.84
2018-06-04T11:36:02.207Z,17.91
2018-06-04T11:38:31.127Z,17.81
2018-06-04T11:41:00.008Z,17.80
2018-06-04T11:43:28.846Z,17.88
2018-06-04T11:45:57.729Z,17.90
2018-06-04T11:48:26.601Z,18.04
2018-06-04T11:50:55.490Z,18.09
2018-06-04T11:53:24.390Z,18.08
2018-06-04T11:55:53.219Z,18.09
2018-06-04T11:58:22.071Z,18.08
2018-06-04T12:00:50.945Z,18.06
2018-06-04T12:03:19.766Z,18.26
2018-06-04T12:05:48.666Z,18.45
2018-06-04T12:08:17.530Z,18.86
2018-06-04T12:10:46.363Z,18.94
2018-06-04T12:13:15.229Z,19.03
2018-06-04T12:15:44.138Z,19.04
2018-06-04T12:18:14.153Z,18.74
2018-06-04T12:20:43.014Z,18.74
2018-06-04T12:23:12.015Z,18.58
2018-06-04T12:25:40.853Z,18.57
2018-06-04T12:28:10.892Z,18.44
2018-06-04T12:30:39.728Z,18.46
2018-06-04T12:33:08.645Z,18.40
2018-06-04T12:35:37.507Z,18.31
2018-06-04T12:38:06.398Z,18.39
2018-06-04T12:40:35.254Z,18.46
2018-06-04T12:43:04.090Z,18.40
2018-06-04T12:45:32.973Z,18.46
2018-06-04T12:48:01.844Z,18.52
2018-06-04T12:50:30.719Z,18.42
2018-06-04T12:52:59.598Z,18.37
2018-06-04T12:55:28.548Z,18.26
2018-06-04T12:57:57.447Z,18.36
2018-06-04T13:00:26.363Z,18.22
2018-06-04T13:02:55.202Z,18.23
2018-06-04T13:05:24.049Z,18.20
2018-06-04T13:07:52.904Z,18.18
2018-06-04T13:10:21.806Z,18.30
2018-06-04T13:12:51.953Z,18.48
2018-06-04T13:15:20.847Z,18.40
2018-06-04T13:17:49.702Z,18.37
2018-06-04T13:20:18.613Z,18.41
2018-06-04T13:22:47.493Z,18.41
2018-06-04T13:25:16.360Z,18.28
2018-06-04T13:27:45.265Z,18.47
2018-06-04T13:30:14.264Z,18.50
2018-06-04T13:32:43.136Z,18.56
2018-06-04T13:35:11.994Z,18.57
2018-06-04T13:37:40.897Z,18.60
2018-06-04T13:40:09.753Z,18.70
2018-06-04T13:42:38.611Z,18.76
2018-06-04T13:45:07.488Z,18.67
2018-06-04T13:47:36.321Z,18.78
2018-06-04T13:50:05.214Z,18.71
2018-06-04T13:52:34.096Z,18.65
2018-06-04T13:55:02.964Z,18.67
2018-06-04T13:57:31.796Z,18.69
2018-06-04T14:00:00.740Z,18.65
2018-06-04T14:02:29.538Z,18.75
2018-06-04T14:04:58.432Z,18.73
2018-06-04T14:07:27.482Z,18.77
2018-06-04T14:09:56.396Z,18.92
2018-06-04T14:12:25.241Z,18.96
2018-06-04T14:14:54.093Z,19.15
2018-06-04T14:17:22.953Z,19.09
2018-06-04T14:19:52.081Z,19.06
2018-06-04T14:22:20.964Z,19.05
2018-06-04T14:24:49.839Z,18.88
2018-06-04T14:27:19.267Z,18.80
2018-06-04T14:29:48.142Z,18.82
2018-06-04T14:32:17.001Z,18.92
2018-06-04T14:34:45.837Z,18.96
2018-06-04T14:37:14.716Z,18.86
2018-06-04T14:39:43.573Z,18.86
2018-06-04T14:42:12.512Z,18.72
2018-06-04T14:44:41.419Z,18.78
2018-06-04T14:47:10.299Z,18.72
2018-06-04T14:49:39.300Z,18.81
2018-06-04T14:52:08.283Z,18.93
2018-06-04T14:54:37.130Z,19.04
2018-06-04T14:57:06.119Z,19.00
2018-06-04T14:59:34.993Z,19.12
2018-06-04T15:02:03.915Z,19.31
2018-06-04T15:04:32.810Z,19.33
2018-06-04T15:07:01.796Z,19.43
2018-06-04T15:09:30.722Z,19.44
2018-06-04T15:11:59.688Z,19.49
2018-06-04T15:14:28.535Z,19.51
2018-06-04T15:16:58.007Z,19.57
2018-06-04T15:19:26.901Z,19.55
2018-06-04T15:21:56.210Z,19.40
2018-06-04T15:24:25.076Z,19.46
2018-06-04T15:26:53.929Z,19.64
2018-06-04T15:29:22.883Z,19.60
2018-06-04T15:31:51.773Z,19.61
2018-06-04T15:34:20.647Z,19.68
2018-06-04T15:36:49.639Z,19.54
2018-06-04T15:39:18.526Z,19.50
2018-06-04T15:41:47.562Z,19.42
2018-06-04T15:44:16.597Z,19.31
2018-06-04T15:46:45.580Z,19.23
2018-06-04T15:49:14.464Z,19.25
2018-06-04T15:51:43.318Z,19.30
2018-06-04T15:54:12.210Z,19.38
2018-06-04T15:56:41.093Z,19.44
2018-06-04T15:59:11.894Z,19.44
2018-06-04T16:01:40.745Z,19.40
2018-06-04T16:04:09.626Z,19.39
2018-06-04T16:06:38.547Z,19.38
2018-06-04T16:09:08.339Z,19.35
2018-06-04T16:11:37.186Z,19.27
2018-06-04T16:14:06.059Z,19.20
2018-06-04T16:16:35.010Z,19.30
2018-06-04T16:19:03.992Z,19.29
2018-06-04T16:21:33.036Z,19.38
2018-06-04T16:24:02.022Z,19.35
2018-06-04T16:26:31.003Z,19.21
2018-06-04T16:28:59.850Z,19.26
2018-06-04T16:31:28.796Z,19.33
2018-06-04T16:33:57.671Z,19.31
2018-06-04T16:36:26.553Z,19.27
2018-06-04T16:38:55.441Z,19.11
2018-06-04T16:41:24.561Z,18.95
2018-06-04T16:43:53.453Z,18.91
2018-06-04T16:46:22.379Z,18.82
2018-06-04T16:48:51.389Z,18.76
2018-06-04T16:51:20.340Z,18.78
2018-06-04T16:53:49.673Z,18.73
2018-06-04T16:56:18.604Z,18.76
2018-06-04T16:58:47.514Z,18.62
2018-06-04T17:01:16.556Z,18.55
2018-06-04T17:03:50.343Z,18.51
2018-06-04T17:06:27.089Z,18.43
2018-06-04T17:09:06.617Z,18.40
2018-06-04T17:11:35.880Z,18.43
2018-06-04T17:14:04.878Z,18.48
2018-06-04T17:16:33.853Z,18.51
2018-06-04T17:19:02.697Z,18.52
2018-06-04T17:21:31.601Z,18.53
2018-06-04T17:24:00.517Z,18.42
2018-06-04T17:26:29.724Z,18.46
2018-06-04T17:28:58.638Z,18.45
2018-06-04T17:31:27.533Z,18.28
2018-06-04T17:33:56.573Z,18.19
2018-06-04T17:36:26.153Z,18.23
2018-06-04T17:38:55.079Z,18.13
2018-06-04T17:41:24.244Z,18.11
2018-06-04T17:43:53.170Z,18.16
2018-06-04T17:46:22.069Z,18.13
2018-06-04T17:48:51.016Z,18.21
2018-06-04T17:51:19.959Z,18.16
2018-06-04T17:53:48.848Z,18.07
2018-06-04T17:56:17.837Z,18.03
2018-06-04T17:58:46.722Z,17.98
2018-06-04T18:01:15.717Z,18.03
2018-06-04T18:03:46.918Z,18.02
2018-06-04T18:06:15.961Z,17.82
2018-06-04T18:08:44.875Z,17.91
2018-06-04T18:11:13.802Z,17.91
2018-06-04T18:13:42.731Z,17.86
2018-06-04T18:16:12.235Z,17.85
2018-06-04T18:18:41.170Z,17.77
2018-06-04T18:21:11.425Z,17.78
2018-06-04T18:23:40.559Z,17.70
2018-06-04T18:26:09.457Z,17.64
2018-06-04T18:28:38.500Z,17.57
2018-06-04T18:31:07.965Z,17.57
2018-06-04T18:33:36.833Z,17.49
2018-06-04T18:36:05.684Z,17.53
2018-06-04T18:38:34.573Z,17.37
2018-06-04T18:41:03.498Z,17.37
2018-06-04T18:43:32.368Z,17.29
2018-06-04T18:46:01.269Z,17.24
2018-06-04T18:48:30.179Z,17.38
2018-06-04T18:50:59.120Z,17.34
2018-06-04T18:53:28.040Z,17.39
2018-06-04T18:55:56.962Z,17.40
2018-06-04T18:58:25.837Z,17.37
2018-06-04T19:00:55.721Z,17.29
2018-06-04T19:03:24.689Z,17.35
2018-06-04T19:05:53.590Z,17.23
2018-06-04T19:08:22.601Z,17.23
2018-06-04T19:10:51.471Z,17.18
2018-06-04T19:13:20.487Z,17.21
2018-06-04T19:15:49.391Z,17.20
2018-06-04T19:18:18.285Z,17.17
2018-06-04T19:20:47.248Z,17.16
2018-06-04T19:23:17.143Z,17.12
2018-06-04T19:25:46.305Z,16.97
2018-06-04T19:28:15.228Z,17.04
2018-06-04T19:30:44.197Z,16.95
2018-06-04T19:33:13.089Z,17.06
2018-06-04T19:35:42.017Z,16.91
2018-06-04T20:33:13.160Z,16.59
2018-06-04T20:35:42.118Z,16.64
2018-06-04T20:38:12.221Z,16.72
2018-06-04T20:40:41.065Z,16.68
2018-06-04T20:43:09.962Z,16.72
2018-06-04T20:45:38.846Z,16.72
2018-06-04T20:48:08.954Z,16.72
2018-06-04T20:50:37.911Z,16.72
2018-06-04T20:53:07.009Z,16.71
2018-06-04T20:55:35.932Z,16.72
2018-06-04T20:58:04.824Z,16.78
2018-06-04T21:00:33.716Z,16.71
2018-06-04T21:03:02.583Z,16.71
2018-06-04T21:05:31.517Z,16.67
2018-06-04T21:08:00.460Z,16.71
2018-06-04T21:10:29.341Z,16.77
2018-06-04T21:12:58.217Z,16.68
2018-06-04T21:15:27.096Z,16.65
2018-06-04T21:17:55.949Z,16.60
2018-06-04T21:20:24.821Z,16.63
2018-06-04T21:22:53.684Z,16.73
2018-06-04T21:25:22.541Z,16.61
2018-06-04T21:27:51.410Z,16.71
2018-06-04T21:30:20.289Z,16.72
2018-06-04T21:32:49.146Z,16.81
2018-06-04T21:35:17.990Z,16.78
2018-06-04T21:37:46.909Z,16.77
2018-06-04T21:40:15.817Z,16.75
2018-06-04T21:42:44.736Z,16.74
2018-06-04T21:45:13.613Z,16.82
2018-06-04T21:47:42.499Z,16.86
2018-06-04T21:50:11.432Z,16.74
2018-06-04T21:52:40.324Z,16.78
2018-06-04T21:55:09.235Z,16.68
2018-06-04T21:57:38.208Z,16.69
2018-06-04T22:00:09.846Z,16.64
2018-06-04T22:02:39.157Z,16.61
2018-06-04T22:05:08.093Z,16.66
2018-06-04T22:07:36.974Z,16.64
2018-06-04T22:10:06.577Z,16.64
2018-06-04T22:12:35.540Z,16.72
2018-06-04T22:15:04.562Z,16.70
2018-06-04T22:17:33.450Z,16.70
2018-06-04T22:20:02.395Z,16.70
2018-06-04T22:22:31.408Z,16.69
2018-06-04T22:25:00.315Z,16.67
2018-06-04T22:27:29.198Z,16.63
2018-06-04T22:29:58.131Z,16.57
2018-06-04T22:32:27.051Z,16.54
2018-06-04T22:34:55.931Z,16.48
2018-06-04T22:37:24.788Z,16.45
2018-06-04T22:39:53.659Z,16.40
2018-06-04T22:42:22.552Z,16.35
2018-06-04T22:44:51.443Z,16.27
2018-06-04T22:47:20.360Z,16.28
2018-06-04T22:49:49.226Z,16.31
2018-06-04T22:52:18.118Z,16.29
2018-06-04T22:54:46.993Z,16.39
2018-06-04T22:57:15.905Z,16.29
2018-06-04T22:59:44.786Z,16.26
2018-06-04T23:02:13.668Z,16.26
2018-06-04T23:04:42.571Z,16.16
2018-06-04T23:07:11.446Z,16.10
2018-06-04T23:09:40.291Z,16.03
2018-06-04T23:12:09.151Z,15.93
2018-06-04T23:14:38.013Z,15.85
2018-06-04T23:17:06.837Z,15.81
2018-06-04T23:19:35.718Z,15.76
2018-06-04T23:22:05.250Z,15.73
2018-06-04T23:24:34.952Z,15.68
2018-06-04T23:27:03.812Z,15.66
2018-06-04T23:29:32.682Z,15.50
2018-06-04T23:32:01.550Z,15.54
2018-06-04T23:34:30.503Z,15.45
2018-06-04T23:36:59.380Z,15.35
2018-06-04T23:39:28.228Z,15.18
2018-06-04T23:41:57.139Z,15.21
2018-06-04T23:44:26.024Z,15.04
2018-06-04T23:46:54.913Z,15.03
2018-06-04T23:49:26.674Z,14.93
2018-06-04T23:51:55.865Z,14.91
2018-06-04T23:54:24.738Z,14.96
2018-06-04T23:56:53.696Z,14.90
2018-06-04T23:59:22.555Z,14.93
